sensor_id;sensor_type;location;lat;lon;timestamp;pressure;altitude;pressure_sealevel;temperature;humidity
20909;BME280;10614;53.198;6.570;2022-11-04T00:00:29;99700.59;;;11.45;100.00
20909;BME280;10614;53.198;6.570;2022-11-04T00:02:30;99704.94;;;11.46;100.00
20909;BME280;10614;53.198;6.570;2022-11-04T00:04:32;99702.31;;;11.46;100.00
20909;BME280;10614;53.198;6.570;2022-11-04T00:06:34;99696.19;;;11.45;100.00
20909;BME280;10614;53.198;6.570;2022-11-04T00:08:36;99697.03;;;11.46;100.00
20909;BME280;10614;53.198;6.570;2022-11-04T00:10:36;99697.03;;;11.46;100.00
20909;BME280;10614;53.198;6.570;2022-11-04T00:12:55;99698.84;;;11.45;100.00
20909;BME280;10614;53.198;6.570;2022-11-04T00:14:57;99693.56;;;11.45;100.00
20909;BME280;10614;53.198;6.570;2022-11-04T00:17:20;99691.84;;;11.44;100.00
20909;BME280;10614;53.198;6.570;2022-11-04T00:19:22;99705.16;;;11.43;100.00
20909;BME280;10614;53.198;6.570;2022-11-04T00:21:24;99700.78;;;11.41;100.00
20909;BME280;10614;53.198;6.570;2022-11-04T00:23:43;99699.88;;;11.43;100.00
20909;BME280;10614;53.198;6.570;2022-11-04T00:26:02;99695.53;;;11.41;100.00
20909;BME280;10614;53.198;6.570;2022-11-04T00:28:21;99695.53;;;11.41;100.00
20909;BME280;10614;53.198;6.570;2022-11-04T00:30:40;99710.59;;;11.39;100.00
20909;BME280;10614;53.198;6.570;2022-11-04T00:32:43;99711.53;;;11.38;100.00
20909;BME280;10614;53.198;6.570;2022-11-04T00:35:03;99716.06;;;11.36;100.00
20909;BME280;10614;53.198;6.570;2022-11-04T00:37:05;99731.78;;;11.38;100.00
20909;BME280;10614;53.198;6.570;2022-11-04T00:39:07;99721.31;;;11.36;100.00
20909;BME280;10614;53.198;6.570;2022-11-04T00:41:09;99718.00;;;11.33;100.00
20909;BME280;10614;53.198;6.570;2022-11-04T00:43:39;99731.38;;;11.30;100.00
20909;BME280;10614;53.198;6.570;2022-11-04T00:45:41;99738.72;;;11.25;100.00
20909;BME280;10614;53.198;6.570;2022-11-04T00:47:42;99735.41;;;11.21;100.00
20909;BME280;10614;53.198;6.570;2022-11-04T00:49:44;99742.56;;;11.19;100.00
20909;BME280;10614;53.198;6.570;2022-11-04T00:51:45;99747.16;;;11.15;100.00
20909;BME280;10614;53.198;6.570;2022-11-04T00:53:47;99759.66;;;11.12;100.00
20909;BME280;10614;53.198;6.570;2022-11-04T00:55:49;99758.19;;;11.08;100.00
20909;BME280;10614;53.198;6.570;2022-11-04T00:57:51;99771.69;;;11.02;100.00
20909;BME280;10614;53.198;6.570;2022-11-04T00:59:54;99762.38;;;10.96;100.00
20909;BME280;10614;53.198;6.570;2022-11-04T01:01:56;99762.66;;;10.91;100.00
20909;BME280;10614;53.198;6.570;2022-11-04T01:03:57;99769.03;;;10.87;100.00
20909;BME280;10614;53.198;6.570;2022-11-04T01:05:59;99768.53;;;10.81;100.00
20909;BME280;10614;53.198;6.570;2022-11-04T01:08:02;99771.44;;;10.76;100.00
20909;BME280;10614;53.198;6.570;2022-11-04T01:10:04;99770.78;;;10.72;100.00
20909;BME280;10614;53.198;6.570;2022-11-04T01:12:06;99797.34;;;10.68;100.00
20909;BME280;10614;53.198;6.570;2022-11-04T01:14:08;99793.19;;;10.64;100.00
20909;BME280;10614;53.198;6.570;2022-11-04T01:16:11;99789.78;;;10.62;100.00
20909;BME280;10614;53.198;6.570;2022-11-04T01:18:13;99791.84;;;10.56;100.00
20909;BME280;10614;53.198;6.570;2022-11-04T01:20:15;99789.28;;;10.55;100.00
20909;BME280;10614;53.198;6.570;2022-11-04T01:22:17;99800.75;;;10.54;100.00
20909;BME280;10614;53.198;6.570;2022-11-04T01:24:18;99806.94;;;10.53;100.00
20909;BME280;10614;53.198;6.570;2022-11-04T01:26:22;99836.72;;;10.53;100.00
20909;BME280;10614;53.198;6.570;2022-11-04T01:28:23;99819.19;;;10.54;100.00
20909;BME280;10614;53.198;6.570;2022-11-04T01:30:25;99821.72;;;10.55;100.00
20909;BME280;10614;53.198;6.570;2022-11-04T01:32:28;99820.03;;;10.54;100.00
20909;BME280;10614;53.198;6.570;2022-11-04T01:34:29;99828.84;;;10.53;100.00
20909;BME280;10614;53.198;6.570;2022-11-04T01:36:31;99840.31;;;10.52;100.00
20909;BME280;10614;53.198;6.570;2022-11-04T01:38:33;99856.03;;;10.54;100.00
20909;BME280;10614;53.198;6.570;2022-11-04T01:40:35;99869.19;;;10.54;100.00
20909;BME280;10614;53.198;6.570;2022-11-04T01:42:37;99865.53;;;10.56;100.00
20909;BME280;10614;53.198;6.570;2022-11-04T01:44:49;99860.34;;;10.55;100.00
20909;BME280;10614;53.198;6.570;2022-11-04T01:46:52;99859.56;;;10.53;100.00
20909;BME280;10614;53.198;6.570;2022-11-04T01:49:00;99867.31;;;10.56;100.00
20909;BME280;10614;53.198;6.570;2022-11-04T01:51:02;99877.84;;;10.56;100.00
20909;BME280;10614;53.198;6.570;2022-11-04T01:53:06;99870.69;;;10.58;100.00
20909;BME280;10614;53.198;6.570;2022-11-04T01:55:13;99881.31;;;10.56;100.00
20909;BME280;10614;53.198;6.570;2022-11-04T01:57:18;99883.19;;;10.54;100.00
20909;BME280;10614;53.198;6.570;2022-11-04T01:59:26;99892.94;;;10.52;100.00
20909;BME280;10614;53.198;6.570;2022-11-04T02:01:28;99894.63;;;10.53;100.00
20909;BME280;10614;53.198;6.570;2022-11-04T02:03:33;99879.84;;;10.51;100.00
20909;BME280;10614;53.198;6.570;2022-11-04T02:05:38;99880.72;;;10.51;100.00
20909;BME280;10614;53.198;6.570;2022-11-04T02:07:40;99879.00;;;10.50;100.00
20909;BME280;10614;53.198;6.570;2022-11-04T02:09:42;99888.69;;;10.50;100.00
20909;BME280;10614;53.198;6.570;2022-11-04T02:11:44;99890.47;;;10.49;100.00
20909;BME280;10614;53.198;6.570;2022-11-04T02:14:03;99881.75;;;10.49;100.00
20909;BME280;10614;53.198;6.570;2022-11-04T02:16:10;99887.09;;;10.47;100.00
20909;BME280;10614;53.198;6.570;2022-11-04T02:18:28;99892.34;;;10.47;100.00
20909;BME280;10614;53.198;6.570;2022-11-04T02:20:47;99889.72;;;10.47;100.00
20909;BME280;10614;53.198;6.570;2022-11-04T02:23:14;99890.81;;;10.43;100.00
20909;BME280;10614;53.198;6.570;2022-11-04T02:25:31;99889.97;;;10.43;100.00
20909;BME280;10614;53.198;6.570;2022-11-04T02:27:51;99896.06;;;10.43;100.00
20909;BME280;10614;53.198;6.570;2022-11-04T02:30:03;99893.69;;;10.39;100.00
20909;BME280;10614;53.198;6.570;2022-11-04T02:32:11;99901.50;;;10.40;100.00
20909;BME280;10614;53.198;6.570;2022-11-04T02:34:19;99904.22;;;10.39;100.00
20909;BME280;10614;53.198;6.570;2022-11-04T02:36:29;99905.16;;;10.38;100.00
20909;BME280;10614;53.198;6.570;2022-11-04T02:38:37;99904.22;;;10.39;100.00
20909;BME280;10614;53.198;6.570;2022-11-04T02:40:50;99920.84;;;10.39;100.00
20909;BME280;10614;53.198;6.570;2022-11-04T02:42:59;99907.78;;;10.38;100.00
20909;BME280;10614;53.198;6.570;2022-11-04T02:45:13;99919.22;;;10.37;100.00
20909;BME280;10614;53.198;6.570;2022-11-04T02:47:20;99917.59;;;10.34;100.00
20909;BME280;10614;53.198;6.570;2022-11-04T02:49:26;99924.66;;;10.33;100.00
20909;BME280;10614;53.198;6.570;2022-11-04T02:51:31;99915.81;;;10.34;100.00
20909;BME280;10614;53.198;6.570;2022-11-04T02:53:38;99929.91;;;10.33;100.00
20909;BME280;10614;53.198;6.570;2022-11-04T02:55:44;99939.50;;;10.34;100.00
20909;BME280;10614;53.198;6.570;2022-11-04T02:57:48;99937.03;;;10.31;100.00
20909;BME280;10614;53.198;6.570;2022-11-04T02:59:55;99947.63;;;10.30;100.00
20909;BME280;10614;53.198;6.570;2022-11-04T03:02:04;99949.34;;;10.31;100.00
20909;BME280;10614;53.198;6.570;2022-11-04T03:04:13;99968.59;;;10.31;100.00
20909;BME280;10614;53.198;6.570;2022-11-04T03:06:18;99974.72;;;10.32;100.00
20909;BME280;10614;53.198;6.570;2022-11-04T03:08:26;99972.06;;;10.32;100.00
20909;BME280;10614;53.198;6.570;2022-11-04T03:10:34;99987.03;;;10.31;100.00
20909;BME280;10614;53.198;6.570;2022-11-04T03:12:41;99982.69;;;10.30;100.00
20909;BME280;10614;53.198;6.570;2022-11-04T03:14:48;99982.69;;;10.30;100.00
20909;BME280;10614;53.198;6.570;2022-11-04T03:16:53;99992.28;;;10.31;100.00
20909;BME280;10614;53.198;6.570;2022-11-04T03:19:01;99998.38;;;10.32;100.00
20909;BME280;10614;53.198;6.570;2022-11-04T03:21:08;100005.44;;;10.31;100.00
20909;BME280;10614;53.198;6.570;2022-11-04T03:23:13;100012.47;;;10.31;100.00
20909;BME280;10614;53.198;6.570;2022-11-04T03:25:15;100005.44;;;10.31;100.00
20909;BME280;10614;53.198;6.570;2022-11-04T03:27:22;100008.06;;;10.31;100.00
20909;BME280;10614;53.198;6.570;2022-11-04T03:29:29;100015.88;;;10.33;100.00
20909;BME280;10614;53.198;6.570;2022-11-04T03:31:39;100015.03;;;10.32;100.00
20909;BME280;10614;53.198;6.570;2022-11-04T03:33:46;100022.06;;;10.32;100.00
20909;BME280;10614;53.198;6.570;2022-11-04T03:35:50;100021.22;;;10.31;100.00
20909;BME280;10614;53.198;6.570;2022-11-04T03:37:52;100017.75;;;10.31;100.00
20909;BME280;10614;53.198;6.570;2022-11-04T03:39:54;100031.81;;;10.30;100.00
20909;BME280;10614;53.198;6.570;2022-11-04T03:41:58;100032.75;;;10.29;100.00
20909;BME280;10614;53.198;6.570;2022-11-04T03:44:00;100032.75;;;10.29;100.00
20909;BME280;10614;53.198;6.570;2022-11-04T03:46:02;100044.97;;;10.30;100.00
20909;BME280;10614;53.198;6.570;2022-11-04T03:48:04;100039.63;;;10.31;100.00
20909;BME280;10614;53.198;6.570;2022-11-04T03:50:08;100043.09;;;10.32;100.00
20909;BME280;10614;53.198;6.570;2022-11-04T03:52:14;100044.81;;;10.33;100.00
20909;BME280;10614;53.198;6.570;2022-11-04T03:54:17;100048.28;;;10.33;100.00
20909;BME280;10614;53.198;6.570;2022-11-04T03:56:34;100041.34;;;10.32;100.00
20909;BME280;10614;53.198;6.570;2022-11-04T03:58:44;100043.97;;;10.32;100.00
20909;BME280;10614;53.198;6.570;2022-11-04T04:00:52;100053.63;;;10.32;100.00
20909;BME280;10614;53.198;6.570;2022-11-04T04:03:05;100051.94;;;10.31;100.00
20909;BME280;10614;53.198;6.570;2022-11-04T04:05:12;100049.38;;;10.29;100.00
20909;BME280;10614;53.198;6.570;2022-11-04T04:07:22;100064.25;;;10.30;100.00
20909;BME280;10614;53.198;6.570;2022-11-04T04:09:31;100061.63;;;10.30;100.00
20909;BME280;10614;53.198;6.570;2022-11-04T04:11:41;100082.56;;;10.32;100.00
20909;BME280;10614;53.198;6.570;2022-11-04T04:13:51;100080.88;;;10.31;100.00
20909;BME280;10614;53.198;6.570;2022-11-04T04:15:56;100086.13;;;10.31;100.00
20909;BME280;10614;53.198;6.570;2022-11-04T04:18:02;100084.41;;;10.30;100.00
20909;BME280;10614;53.198;6.570;2022-11-04T04:20:09;100104.63;;;10.29;100.00
20909;BME280;10614;53.198;6.570;2022-11-04T04:22:15;100107.31;;;10.28;100.00
20909;BME280;10614;53.198;6.570;2022-11-04T04:24:23;100106.44;;;10.27;100.00
20909;BME280;10614;53.198;6.570;2022-11-04T04:26:45;100110.00;;;10.26;100.00
20909;BME280;10614;53.198;6.570;2022-11-04T04:29:06;100120.59;;;10.25;100.00
20909;BME280;10614;53.198;6.570;2022-11-04T04:31:11;100132.19;;;10.21;100.00
20909;BME280;10614;53.198;6.570;2022-11-04T04:33:35;100134.13;;;10.17;100.00
20909;BME280;10614;53.198;6.570;2022-11-04T04:35:40;100130.16;;;10.08;100.00
20909;BME280;10614;53.198;6.570;2022-11-04T04:37:43;100147.81;;;10.06;100.00
20909;BME280;10614;53.198;6.570;2022-11-04T04:39:50;100149.75;;;10.03;100.00
20909;BME280;10614;53.198;6.570;2022-11-04T04:42:10;100151.66;;;9.99;100.00
20909;BME280;10614;53.198;6.570;2022-11-04T04:44:29;100152.59;;;9.98;100.00
20909;BME280;10614;53.198;6.570;2022-11-04T04:46:51;100163.28;;;9.95;100.00
20909;BME280;10614;53.198;6.570;2022-11-04T04:48:54;100155.50;;;9.92;100.00
20909;BME280;10614;53.198;6.570;2022-11-04T04:50:56;100161.72;;;9.91;100.00
20909;BME280;10614;53.198;6.570;2022-11-04T04:53:01;100159.13;;;9.89;100.00
20909;BME280;10614;53.198;6.570;2022-11-04T04:55:05;100167.03;;;9.89;100.00
20909;BME280;10614;53.198;6.570;2022-11-04T04:57:07;100168.81;;;9.89;100.00
20909;BME280;10614;53.198;6.570;2022-11-04T04:59:09;100171.44;;;9.89;100.00
20909;BME280;10614;53.198;6.570;2022-11-04T05:01:10;100170.66;;;9.87;100.00
20909;BME280;10614;53.198;6.570;2022-11-04T05:03:12;100178.75;;;9.82;100.00
20909;BME280;10614;53.198;6.570;2022-11-04T05:05:14;100182.31;;;9.81;100.00
20909;BME280;10614;53.198;6.570;2022-11-04T05:07:16;100180.69;;;9.79;100.00
20909;BME280;10614;53.198;6.570;2022-11-04T05:09:17;100195.59;;;9.78;100.00
20909;BME280;10614;53.198;6.570;2022-11-04T05:11:20;100192.28;;;9.75;100.00
20909;BME280;10614;53.198;6.570;2022-11-04T05:13:22;100193.13;;;9.75;100.00
20909;BME280;10614;53.198;6.570;2022-11-04T05:15:26;100193.19;;;9.73;100.00
20909;BME280;10614;53.198;6.570;2022-11-04T05:17:28;100200.28;;;9.71;100.00
20909;BME280;10614;53.198;6.570;2022-11-04T05:19:30;100200.38;;;9.70;100.00
20909;BME280;10614;53.198;6.570;2022-11-04T05:21:31;100207.41;;;9.69;100.00
20909;BME280;10614;53.198;6.570;2022-11-04T05:23:33;100208.31;;;9.68;100.00
20909;BME280;10614;53.198;6.570;2022-11-04T05:25:35;100196.97;;;9.68;100.00
20909;BME280;10614;53.198;6.570;2022-11-04T05:27:38;100206.69;;;9.66;100.00
20909;BME280;10614;53.198;6.570;2022-11-04T05:29:39;100215.50;;;9.65;100.00
20909;BME280;10614;53.198;6.570;2022-11-04T05:31:41;100217.25;;;9.64;100.00
20909;BME280;10614;53.198;6.570;2022-11-04T05:33:43;100212.94;;;9.63;100.00
20909;BME280;10614;53.198;6.570;2022-11-04T05:35:44;100212.09;;;9.63;100.00
20909;BME280;10614;53.198;6.570;2022-11-04T05:37:46;100217.34;;;9.63;100.00
20909;BME280;10614;53.198;6.570;2022-11-04T05:39:48;100220.97;;;9.60;100.00
20909;BME280;10614;53.198;6.570;2022-11-04T05:41:49;100218.25;;;9.62;100.00
20909;BME280;10614;53.198;6.570;2022-11-04T05:43:53;100217.41;;;9.61;100.00
20909;BME280;10614;53.198;6.570;2022-11-04T05:45:57;100220.19;;;9.58;100.00
20909;BME280;10614;53.198;6.570;2022-11-04T05:47:59;100226.34;;;9.57;100.00
20909;BME280;10614;53.198;6.570;2022-11-04T05:50:01;100230.91;;;9.54;100.00
20909;BME280;10614;53.198;6.570;2022-11-04T05:52:04;100238.78;;;9.54;100.00
20909;BME280;10614;53.198;6.570;2022-11-04T05:54:05;100238.84;;;9.52;100.00
20909;BME280;10614;53.198;6.570;2022-11-04T05:56:08;100230.06;;;9.53;100.00
20909;BME280;10614;53.198;6.570;2022-11-04T05:58:10;100241.56;;;9.50;100.00
20909;BME280;10614;53.198;6.570;2022-11-04T06:00:14;100240.69;;;9.50;100.00
20909;BME280;10614;53.198;6.570;2022-11-04T06:02:16;100245.09;;;9.49;100.00
20909;BME280;10614;53.198;6.570;2022-11-04T06:04:18;100253.97;;;9.47;100.00
20909;BME280;10614;53.198;6.570;2022-11-04T06:06:20;100257.53;;;9.46;100.00
20909;BME280;10614;53.198;6.570;2022-11-04T06:08:22;100262.00;;;9.44;100.00
20909;BME280;10614;53.198;6.570;2022-11-04T06:10:24;100266.38;;;9.43;100.00
20909;BME280;10614;53.198;6.570;2022-11-04T06:12:26;100258.59;;;9.42;100.00
20909;BME280;10614;53.198;6.570;2022-11-04T06:14:27;100263.00;;;9.41;100.00
20909;BME280;10614;53.198;6.570;2022-11-04T06:16:30;100264.75;;;9.41;100.00
20909;BME280;10614;53.198;6.570;2022-11-04T06:18:32;100266.53;;;9.40;100.00
20909;BME280;10614;53.198;6.570;2022-11-04T06:20:34;100265.69;;;9.40;100.00
20909;BME280;10614;53.198;6.570;2022-11-04T06:22:35;100275.25;;;9.41;100.00
20909;BME280;10614;53.198;6.570;2022-11-04T06:24:37;100272.72;;;9.39;100.00
20909;BME280;10614;53.198;6.570;2022-11-04T06:26:39;100275.38;;;9.38;100.00
20909;BME280;10614;53.198;6.570;2022-11-04T06:28:41;100277.22;;;9.36;100.00
20909;BME280;10614;53.198;6.570;2022-11-04T06:30:43;100282.47;;;9.36;100.00
20909;BME280;10614;53.198;6.570;2022-11-04T06:32:46;100273.75;;;9.35;100.00
20909;BME280;10614;53.198;6.570;2022-11-04T06:34:48;100284.31;;;9.34;100.00
20909;BME280;10614;53.198;6.570;2022-11-04T06:36:49;100286.94;;;9.34;100.00
20909;BME280;10614;53.198;6.570;2022-11-04T06:38:51;100280.91;;;9.32;100.00
20909;BME280;10614;53.198;6.570;2022-11-04T06:40:53;100281.00;;;9.30;100.00
20909;BME280;10614;53.198;6.570;2022-11-04T06:42:54;100279.25;;;9.29;100.00
20909;BME280;10614;53.198;6.570;2022-11-04T06:44:56;100282.03;;;9.26;100.00
20909;BME280;10614;53.198;6.570;2022-11-04T06:46:58;100283.88;;;9.24;100.00
20909;BME280;10614;53.198;6.570;2022-11-04T06:49:01;100285.78;;;9.20;100.00
20909;BME280;10614;53.198;6.570;2022-11-04T06:51:03;100295.56;;;9.17;100.00
20909;BME280;10614;53.198;6.570;2022-11-04T06:53:05;100302.66;;;9.15;100.00
20909;BME280;10614;53.198;6.570;2022-11-04T06:55:08;100308.75;;;9.15;100.00
20909;BME280;10614;53.198;6.570;2022-11-04T06:57:10;100314.94;;;9.14;100.00
20909;BME280;10614;53.198;6.570;2022-11-04T06:59:15;100314.97;;;9.13;100.00
20909;BME280;10614;53.198;6.570;2022-11-04T07:01:17;100321.13;;;9.13;100.00
20909;BME280;10614;53.198;6.570;2022-11-04T07:03:19;100329.75;;;9.15;100.00
20909;BME280;10614;53.198;6.570;2022-11-04T07:05:22;100330.69;;;9.14;100.00
20909;BME280;10614;53.198;6.570;2022-11-04T07:07:23;100330.63;;;9.16;100.00
20909;BME280;10614;53.198;6.570;2022-11-04T07:09:25;100341.25;;;9.13;100.00
20909;BME280;10614;53.198;6.570;2022-11-04T07:11:29;100341.25;;;9.13;100.00
20909;BME280;10614;53.198;6.570;2022-11-04T07:13:31;100347.38;;;9.13;100.00
20909;BME280;10614;53.198;6.570;2022-11-04T07:15:33;100356.09;;;9.14;100.00
20909;BME280;10614;53.198;6.570;2022-11-04T07:17:35;100356.00;;;9.15;100.00
20909;BME280;10614;53.198;6.570;2022-11-04T07:19:36;100363.88;;;9.15;100.00
20909;BME280;10614;53.198;6.570;2022-11-04T07:21:39;100358.72;;;9.14;100.00
20909;BME280;10614;53.198;6.570;2022-11-04T07:23:41;100358.78;;;9.12;100.00
20909;BME280;10614;53.198;6.570;2022-11-04T07:25:43;100363.13;;;9.13;100.00
20909;BME280;10614;53.198;6.570;2022-11-04T07:27:44;100367.63;;;9.09;100.00
20909;BME280;10614;53.198;6.570;2022-11-04T07:29:46;100372.03;;;9.09;100.00
20909;BME280;10614;53.198;6.570;2022-11-04T07:31:48;100382.59;;;9.07;100.00
20909;BME280;10614;53.198;6.570;2022-11-04T07:33:49;100378.19;;;9.08;100.00
20909;BME280;10614;53.198;6.570;2022-11-04T07:35:51;100385.22;;;9.07;100.00
20909;BME280;10614;53.198;6.570;2022-11-04T07:37:55;100384.31;;;9.08;100.00
20909;BME280;10614;53.198;6.570;2022-11-04T07:39:57;100402.69;;;9.08;100.00
20909;BME280;10614;53.198;6.570;2022-11-04T07:41:58;100403.53;;;9.09;100.00
20909;BME280;10614;53.198;6.570;2022-11-04T07:44:00;100399.19;;;9.08;100.00
20909;BME280;10614;53.198;6.570;2022-11-04T07:46:06;100402.69;;;9.08;100.00
20909;BME280;10614;53.198;6.570;2022-11-04T07:48:08;100400.19;;;9.05;100.00
20909;BME280;10614;53.198;6.570;2022-11-04T07:50:09;100414.09;;;9.07;100.00
20909;BME280;10614;53.198;6.570;2022-11-04T07:52:11;100417.56;;;9.08;100.00
20909;BME280;10614;53.198;6.570;2022-11-04T07:54:14;100411.47;;;9.07;100.00
20909;BME280;10614;53.198;6.570;2022-11-04T07:56:16;100428.06;;;9.08;100.00
20909;BME280;10614;53.198;6.570;2022-11-04T07:58:20;100435.06;;;9.09;100.00
20909;BME280;10614;53.198;6.570;2022-11-04T08:00:23;100432.53;;;9.06;100.00
20909;BME280;10614;53.198;6.570;2022-11-04T08:02:24;100438.56;;;9.08;100.00
20909;BME280;10614;53.198;6.570;2022-11-04T08:04:26;100444.75;;;9.07;100.00
20909;BME280;10614;53.198;6.570;2022-11-04T08:06:29;100448.28;;;9.06;100.00
20909;BME280;10614;53.198;6.570;2022-11-04T08:08:31;100439.63;;;9.04;100.00
20909;BME280;10614;53.198;6.570;2022-11-04T08:10:35;100439.63;;;9.04;100.00
20909;BME280;10614;53.198;6.570;2022-11-04T08:12:36;100445.78;;;9.03;100.00
20909;BME280;10614;53.198;6.570;2022-11-04T08:14:38;100446.63;;;9.03;100.00
20909;BME280;10614;53.198;6.570;2022-11-04T08:16:40;100450.13;;;9.04;100.00
20909;BME280;10614;53.198;6.570;2022-11-04T08:18:42;100446.63;;;9.03;100.00
20909;BME280;10614;53.198;6.570;2022-11-04T08:20:47;100450.13;;;9.04;100.00
20909;BME280;10614;53.198;6.570;2022-11-04T08:22:50;100458.00;;;9.04;100.00
20909;BME280;10614;53.198;6.570;2022-11-04T08:24:51;100462.34;;;9.05;100.00
20909;BME280;10614;53.198;6.570;2022-11-04T08:26:54;100470.16;;;9.06;100.00
20909;BME280;10614;53.198;6.570;2022-11-04T08:28:56;100468.38;;;9.07;100.00
20909;BME280;10614;53.198;6.570;2022-11-04T08:31:00;100471.81;;;9.09;100.00
20909;BME280;10614;53.198;6.570;2022-11-04T08:33:02;100468.25;;;9.10;100.00
20909;BME280;10614;53.198;6.570;2022-11-04T08:35:05;100476.97;;;9.11;100.00
20909;BME280;10614;53.198;6.570;2022-11-04T08:37:08;100478.72;;;9.12;100.00
20909;BME280;10614;53.198;6.570;2022-11-04T08:39:11;100464.72;;;9.11;100.00
20909;BME280;10614;53.198;6.570;2022-11-04T08:41:15;100469.06;;;9.12;100.00
20909;BME280;10614;53.198;6.570;2022-11-04T08:43:18;100466.28;;;9.15;100.00
20909;BME280;10614;53.198;6.570;2022-11-04T08:45:20;100465.34;;;9.18;100.00
20909;BME280;10614;53.198;6.570;2022-11-04T08:47:22;100459.16;;;9.19;100.00
20909;BME280;10614;53.198;6.570;2022-11-04T08:49:23;100460.81;;;9.21;100.00
20909;BME280;10614;53.198;6.570;2022-11-04T08:51:26;100461.66;;;9.22;100.00
20909;BME280;10614;53.198;6.570;2022-11-04T08:53:28;100465.06;;;9.24;100.00
20909;BME280;10614;53.198;6.570;2022-11-04T08:55:30;100473.75;;;9.26;100.00
20909;BME280;10614;53.198;6.570;2022-11-04T08:57:32;100478.06;;;9.27;100.00
20909;BME280;10614;53.198;6.570;2022-11-04T08:59:35;100475.44;;;9.27;100.00
20909;BME280;10614;53.198;6.570;2022-11-04T09:01:37;100477.13;;;9.29;100.00
20909;BME280;10614;53.198;6.570;2022-11-04T09:03:40;100492.75;;;9.33;100.00
20909;BME280;10614;53.198;6.570;2022-11-04T09:05:42;100481.22;;;9.37;100.00
20909;BME280;10614;53.198;6.570;2022-11-04T09:07:48;100496.03;;;9.38;100.00
20909;BME280;10614;53.198;6.570;2022-11-04T09:09:49;100491.59;;;9.40;100.00
20909;BME280;10614;53.198;6.570;2022-11-04T09:11:51;100494.16;;;9.41;100.00
20909;BME280;10614;53.198;6.570;2022-11-04T09:13:53;100494.88;;;9.45;100.00
20909;BME280;10614;53.198;6.570;2022-11-04T09:15:56;100489.66;;;9.43;100.00
20909;BME280;10614;53.198;6.570;2022-11-04T09:17:58;100495.66;;;9.47;100.00
20909;BME280;10614;53.198;6.570;2022-11-04T09:20:00;100491.16;;;9.50;100.00
20909;BME280;10614;53.198;6.570;2022-11-04T09:22:01;100495.47;;;9.51;100.00
20909;BME280;10614;53.198;6.570;2022-11-04T09:24:03;100499.75;;;9.54;100.00
20909;BME280;10614;53.198;6.570;2022-11-04T09:26:08;100506.66;;;9.57;100.00
20909;BME280;10614;53.198;6.570;2022-11-04T09:28:10;100516.25;;;9.58;100.00
20909;BME280;10614;53.198;6.570;2022-11-04T09:30:12;100513.56;;;9.59;100.00
20909;BME280;10614;53.198;6.570;2022-11-04T09:32:15;100524.84;;;9.61;100.00
20909;BME280;10614;53.198;6.570;2022-11-04T09:34:17;100520.41;;;9.63;100.00
20909;BME280;10614;53.198;6.570;2022-11-04T09:36:20;100531.75;;;9.64;100.00
20909;BME280;10614;53.198;6.570;2022-11-04T09:38:21;100528.16;;;9.66;100.00
20909;BME280;10614;53.198;6.570;2022-11-04T09:40:24;100538.66;;;9.66;100.00
20909;BME280;10614;53.198;6.570;2022-11-04T09:42:40;100541.19;;;9.69;100.00
20909;BME280;10614;53.198;6.570;2022-11-04T09:44:49;100544.53;;;9.73;100.00
20909;BME280;10614;53.198;6.570;2022-11-04T09:46:58;100545.25;;;9.77;100.00
20909;BME280;10614;53.198;6.570;2022-11-04T09:49:05;100549.44;;;9.81;100.00
20909;BME280;10614;53.198;6.570;2022-11-04T09:51:08;100546.72;;;9.84;100.00
20909;BME280;10614;53.198;6.570;2022-11-04T09:53:14;100547.56;;;9.84;100.00
20909;BME280;10614;53.198;6.570;2022-11-04T09:55:24;100557.03;;;9.88;100.00
20909;BME280;10614;53.198;6.570;2022-11-04T09:57:27;100556.16;;;9.88;100.00
20909;BME280;10614;53.198;6.570;2022-11-04T09:59:32;100570.06;;;9.91;100.00
20909;BME280;10614;53.198;6.570;2022-11-04T10:01:38;100581.22;;;9.97;100.00
20909;BME280;10614;53.198;6.570;2022-11-04T10:03:52;100572.34;;;9.99;100.00
20909;BME280;10614;53.198;6.570;2022-11-04T10:06:10;100573.16;;;10.01;100.00
20909;BME280;10614;53.198;6.570;2022-11-04T10:08:34;100584.47;;;10.03;100.00
20909;BME280;10614;53.198;6.570;2022-11-04T10:10:49;100582.63;;;10.05;100.00
20909;BME280;10614;53.198;6.570;2022-11-04T10:13:07;100579.00;;;10.08;100.00
20909;BME280;10614;53.198;6.570;2022-11-04T10:15:21;100586.66;;;10.14;100.00
20909;BME280;10614;53.198;6.570;2022-11-04T10:17:39;100589.09;;;10.19;100.00
20909;BME280;10614;53.198;6.570;2022-11-04T10:19:52;100588.91;;;10.23;100.00
20909;BME280;10614;53.198;6.570;2022-11-04T10:22:02;100602.72;;;10.28;100.00
20909;BME280;10614;53.198;6.570;2022-11-04T10:24:10;100590.38;;;10.30;100.00
20909;BME280;10614;53.198;6.570;2022-11-04T10:26:18;100584.97;;;10.33;100.00
20909;BME280;10614;53.198;6.570;2022-11-04T10:28:29;100603.25;;;10.37;100.00
20909;BME280;10614;53.198;6.570;2022-11-04T10:30:35;100591.69;;;10.41;100.00
20909;BME280;10614;53.198;6.570;2022-11-04T10:32:39;100596.00;;;10.42;100.00
20909;BME280;10614;53.198;6.570;2022-11-04T10:34:51;100606.31;;;10.46;100.00
20909;BME280;10614;53.198;6.570;2022-11-04T10:36:55;100599.16;;;10.50;100.00
20909;BME280;10614;53.198;6.570;2022-11-04T10:39:02;100597.38;;;10.50;100.00
20909;BME280;10614;53.198;6.570;2022-11-04T10:41:18;100597.25;;;10.53;100.00
20909;BME280;10614;53.198;6.570;2022-11-04T10:43:25;100604.94;;;10.58;100.00
20909;BME280;10614;53.198;6.570;2022-11-04T10:45:33;100603.03;;;10.62;100.00
20909;BME280;10614;53.198;6.570;2022-11-04T10:47:43;100610.69;;;10.68;100.00
20909;BME280;10614;53.198;6.570;2022-11-04T10:50:06;100613.13;;;10.72;100.00
20909;BME280;10614;53.198;6.570;2022-11-04T10:52:14;100619.88;;;10.78;100.00